Time;durP1;ratioP1;P1;durP2;ratioP2;P2;SDS_P1;SDS_P2;PMS_P1;PMS_P2;Temp;Humidity;BMP_temperature;BMP_pressure;BME280_temperature;BME280_humidity;BME280_pressure;Samples;Min_cycle;Max_cycle;Signal;HPM_P1;HPM_P2
2021/06/20 00:00:06;;;;;;;14.63;6.30;;;;;;;22.47;78.72;93380.84;5157420;27;20200;-75
2021/06/20 00:02:33;;;;;;;14.38;6.55;;;;;;;22.41;80.06;93378.53;5157428;27;20204;-76
2021/06/20 00:04:59;;;;;;;14.02;5.55;;;;;;;22.28;81.04;93380.81;5156401;27;20196;-76
2021/06/20 00:07:26;;;;;;;10.48;5.97;;;;;;;22.18;82.14;93379.00;5157350;27;20555;-76
2021/06/20 00:09:52;;;;;;;14.60;5.90;;;;;;;22.16;81.40;93375.81;5157161;27;20292;-76
2021/06/20 00:12:19;;;;;;;11.43;6.15;;;;;;;22.11;82.57;93375.09;5157038;27;20654;-76
2021/06/20 00:14:45;;;;;;;15.98;6.03;;;;;;;22.03;82.84;93373.84;5157026;27;20684;-75
2021/06/20 00:17:13;;;;;;;9.55;5.97;;;;;;;21.89;85.95;93378.25;5156946;27;20555;-75
2021/06/20 00:19:39;;;;;;;10.55;5.85;;;;;;;21.77;85.13;93384.72;5156898;27;20192;-75
2021/06/20 00:22:06;;;;;;;9.05;5.75;;;;;;;21.58;88.28;93384.63;5156925;27;20211;-75
2021/06/20 00:24:32;;;;;;;12.65;6.15;;;;;;;21.61;86.43;93378.75;5156909;27;20203;-75
2021/06/20 00:26:59;;;;;;;14.77;6.38;;;;;;;21.51;89.22;93380.72;5156204;27;20227;-75
2021/06/20 00:29:25;;;;;;;10.35;6.28;;;;;;;21.33;90.12;93398.84;5156867;27;20474;-75
2021/06/20 00:31:53;;;;;;;11.40;6.10;;;;;;;21.19;90.29;93389.94;5156641;27;20211;-75
2021/06/20 00:34:21;;;;;;;12.30;6.38;;;;;;;21.13;91.16;93399.00;5156788;27;20220;-75
2021/06/20 00:36:47;;;;;;;13.13;6.95;;;;;;;21.08;93.15;93410.44;5156744;27;20211;-76
2021/06/20 00:39:14;;;;;;;17.95;6.50;;;;;;;21.00;93.37;93398.56;5156758;27;20293;-76
2021/06/20 00:41:41;;;;;;;14.57;7.03;;;;;;;20.89;94.50;93408.41;5156586;27;20204;-75
2021/06/20 00:44:07;;;;;;;14.05;6.40;;;;;;;20.81;94.72;93402.91;5156529;27;20222;-75
2021/06/20 00:46:34;;;;;;;11.32;6.40;;;;;;;20.78;94.97;93406.88;5156420;27;20680;-76
2021/06/20 00:49:00;;;;;;;12.18;6.72;;;;;;;20.72;95.73;93404.53;5156621;27;20196;-76
2021/06/20 00:51:28;;;;;;;19.65;6.53;;;;;;;20.70;99.69;93400.31;5156476;27;20200;-77
2021/06/20 00:53:54;;;;;;;17.60;6.80;;;;;;;20.74;98.69;93391.81;5156355;27;20200;-76
2021/06/20 00:56:21;;;;;;;14.57;6.85;;;;;;;20.62;99.20;93398.19;5156155;27;20192;-76
2021/06/20 00:58:49;;;;;;;16.50;6.78;;;;;;;20.60;97.86;93410.94;5156194;27;20535;-76
2021/06/20 01:01:27;;;;;;;17.95;6.80;;;;;;;20.46;100.00;93417.88;5156125;27;20207;-76
2021/06/20 01:03:54;;;;;;;19.67;7.18;;;;;;;20.39;100.00;93414.72;5156280;27;20203;-75
2021/06/20 01:06:20;;;;;;;13.45;7.03;;;;;;;20.29;100.00;93431.44;5156104;27;20192;-76
2021/06/20 01:08:48;;;;;;;19.90;7.10;;;;;;;20.32;100.00;93425.59;5156063;27;20200;-75
2021/06/20 01:11:15;;;;;;;17.45;7.47;;;;;;;20.33;100.00;93421.88;5156007;27;20594;-76
2021/06/20 01:13:44;;;;;;;23.55;7.78;;;;;;;20.43;100.00;93435.09;5155834;27;20200;-76
2021/06/20 01:16:11;;;;;;;18.85;7.75;;;;;;;20.50;100.00;93437.47;5155046;27;20294;-75
2021/06/20 01:18:38;;;;;;;21.48;7.55;;;;;;;20.74;100.00;93428.94;5155704;27;20207;-75
2021/06/20 01:21:05;;;;;;;19.45;7.60;;;;;;;21.00;99.87;93435.72;5155888;27;20226;-75
2021/06/20 01:23:33;;;;;;;25.80;7.10;;;;;;;20.88;99.78;93435.22;5155796;27;20200;-75
2021/06/20 01:26:00;;;;;;;20.45;7.05;;;;;;;20.95;99.45;93443.72;5155449;27;20228;-75
2021/06/20 01:28:28;;;;;;;17.13;7.10;;;;;;;21.06;99.39;93447.09;5155507;27;20211;-76
2021/06/20 01:30:58;;;;;;;31.15;7.10;;;;;;;21.54;94.62;93454.53;5155832;27;20248;-76
2021/06/20 01:33:25;;;;;;;31.83;7.68;;;;;;;21.88;90.48;93459.84;5155835;27;20230;-75
2021/06/20 01:35:52;;;;;;;27.73;7.97;;;;;;;21.81;91.24;93454.84;5155318;27;20577;-75
2021/06/20 01:38:18;;;;;;;31.27;7.35;;;;;;;22.04;88.97;93457.84;5155434;27;20662;-75
2021/06/20 01:40:46;;;;;;;32.28;7.65;;;;;;;22.10;88.01;93455.94;5155246;27;20207;-76
2021/06/20 01:43:13;;;;;;;27.00;7.28;;;;;;;21.99;89.67;93450.72;5155545;27;20196;-75
2021/06/20 01:45:42;;;;;;;41.33;8.10;;;;;;;22.10;88.07;93448.78;5155192;27;20206;-75
2021/06/20 01:48:08;;;;;;;38.53;7.72;;;;;;;22.20;87.43;93455.84;5153800;27;20783;-77
2021/06/20 01:50:35;;;;;;;27.83;6.55;;;;;;;22.12;87.94;93473.22;5155247;27;20200;-76
2021/06/20 01:53:04;;;;;;;32.72;7.53;;;;;;;22.02;88.92;93481.28;5155111;27;20200;-76
2021/06/20 01:55:31;;;;;;;39.63;8.02;;;;;;;22.05;88.48;93490.53;5154998;27;20219;-76
2021/06/20 01:57:59;;;;;;;37.20;8.32;;;;;;;22.01;88.60;93490.31;5155243;27;20208;-75
2021/06/20 02:00:26;;;;;;;44.50;8.25;;;;;;;22.06;87.70;93492.94;5154935;27;20621;-76
2021/06/20 02:02:52;;;;;;;32.42;7.10;;;;;;;21.92;88.53;93502.63;5154862;27;20668;-76
2021/06/20 02:05:25;;;;;;;44.30;7.38;;;;;;;21.88;87.54;93506.91;5154996;27;20199;-75
2021/06/20 02:07:51;;;;;;;35.00;7.32;;;;;;;21.86;88.06;93525.78;5154650;27;20654;-76
2021/06/20 02:10:18;;;;;;;36.22;7.28;;;;;;;21.93;87.39;93525.47;5155015;27;20195;-75
2021/06/20 02:12:44;;;;;;;28.67;6.18;;;;;;;21.87;87.32;93531.91;5154982;27;20192;-76
2021/06/20 02:15:15;;;;;;;27.38;6.32;;;;;;;21.75;88.15;93530.38;5154783;27;20228;-76
2021/06/20 02:17:42;;;;;;;31.85;6.25;;;;;;;21.61;87.71;93524.88;5154841;27;20248;-75
2021/06/20 02:20:11;;;;;;;29.83;6.30;;;;;;;21.67;85.39;93503.63;5154734;27;20200;-76
2021/06/20 02:22:39;;;;;;;34.42;7.05;;;;;;;21.86;84.43;93501.06;5154604;27;20558;-76
2021/06/20 02:25:06;;;;;;;34.72;6.20;;;;;;;21.76;85.19;93494.75;5154884;27;20278;-76
2021/06/20 02:27:33;;;;;;;32.00;5.80;;;;;;;21.90;80.59;93488.81;5154147;27;20697;-75
2021/06/20 02:29:59;;;;;;;29.60;6.05;;;;;;;21.97;81.19;93502.59;5153384;27;20775;-76
2021/06/20 02:32:27;;;;;;;31.50;6.03;;;;;;;21.90;80.79;93518.84;5154582;27;20199;-76
2021/06/20 02:34:54;;;;;;;37.35;6.32;;;;;;;21.84;81.53;93527.16;5154387;27;20700;-75
2021/06/20 02:37:22;;;;;;;31.70;5.57;;;;;;;21.81;80.74;93523.94;5154195;27;20203;-75
2021/06/20 02:39:48;;;;;;;31.38;6.00;;;;;;;21.77;80.84;93522.94;5154717;27;20199;-75
2021/06/20 02:42:16;;;;;;;31.67;5.80;;;;;;;21.86;79.45;93535.63;5154628;27;20207;-75
2021/06/20 02:44:43;;;;;;;25.05;5.35;;;;;;;21.84;79.88;93516.50;5154508;27;20196;-76
2021/06/20 02:47:10;;;;;;;26.52;4.75;;;;;;;21.81;80.20;93515.97;5154503;27;20211;-77
2021/06/20 02:49:40;;;;;;;34.20;5.22;;;;;;;21.93;78.14;93531.59;5154331;27;20207;-77
2021/06/20 02:52:08;;;;;;;28.33;4.90;;;;;;;22.03;77.37;93520.06;5154560;27;20222;-77
2021/06/20 02:54:35;;;;;;;28.92;4.80;;;;;;;21.95;77.80;93518.03;5154420;27;20207;-75
2021/06/20 02:57:02;;;;;;;22.30;4.60;;;;;;;21.92;77.70;93521.25;5154458;27;20347;-76
2021/06/20 02:59:28;;;;;;;21.23;4.75;;;;;;;21.91;77.79;93531.06;5154428;27;20208;-76
2021/06/20 03:01:55;;;;;;;25.80;4.30;;;;;;;21.95;78.06;93534.75;5154260;27;20200;-75
2021/06/20 03:04:21;;;;;;;26.40;5.30;;;;;;;21.94;77.85;93551.00;5154484;27;20204;-76
2021/06/20 03:06:49;;;;;;;23.27;4.78;;;;;;;21.88;78.47;93554.75;5154450;27;20547;-76
2021/06/20 03:09:16;;;;;;;24.40;4.38;;;;;;;21.83;77.41;93552.13;5154455;27;20196;-76
2021/06/20 03:11:42;;;;;;;25.58;5.25;;;;;;;21.77;78.27;93551.38;5154140;27;20694;-76
2021/06/20 03:14:09;;;;;;;23.38;5.43;;;;;;;21.70;78.61;93557.00;5154243;27;20245;-76
2021/06/20 03:16:36;;;;;;;27.83;5.65;;;;;;;21.65;79.99;93556.22;5154049;27;20224;-76
2021/06/20 03:19:02;;;;;;;35.08;5.05;;;;;;;21.60;79.80;93557.06;5154084;27;20200;-76
2021/06/20 03:21:29;;;;;;;23.25;4.68;;;;;;;21.61;79.15;93562.06;5154320;27;20204;-76
2021/06/20 03:23:57;;;;;;;37.00;5.10;;;;;;;21.55;80.16;93557.88;5154059;27;20208;-76
2021/06/20 03:26:23;;;;;;;29.08;4.53;;;;;;;21.49;80.40;93558.97;5153883;27;20253;-76
2021/06/20 03:28:50;;;;;;;22.27;4.90;;;;;;;21.44;80.36;93551.78;5154034;27;20199;-76
2021/06/20 03:31:17;;;;;;;31.92;4.57;;;;;;;21.41;79.82;93544.34;5153950;27;20291;-76
2021/06/20 03:33:44;;;;;;;18.92;4.40;;;;;;;21.41;80.53;93541.69;5153995;27;20730;-75
2021/06/20 03:36:11;;;;;;;19.88;3.97;;;;;;;21.34;80.91;93545.72;5153958;27;20223;-75
2021/06/20 03:38:38;;;;;;;25.48;4.03;;;;;;;21.31;80.52;93544.41;5154062;27;20200;-75
2021/06/20 03:41:05;;;;;;;18.67;3.63;;;;;;;21.18;81.49;93542.34;5156918;27;20200;-75
2021/06/20 03:43:32;;;;;;;22.25;4.38;;;;;;;21.17;78.71;93546.88;5157589;27;20677;-77
2021/06/20 03:45:58;;;;;;;16.08;3.58;;;;;;;21.18;78.97;93559.09;5157525;27;20208;-75
2021/06/20 03:48:25;;;;;;;16.98;3.67;;;;;;;21.23;77.79;93551.09;5157572;27;20651;-75
2021/06/20 03:50:51;;;;;;;24.02;3.90;;;;;;;21.26;77.99;93555.84;5157519;27;20196;-75
2021/06/20 03:53:18;;;;;;;23.23;4.65;;;;;;;21.22;77.75;93540.75;5157697;27;20204;-75
2021/06/20 03:55:44;;;;;;;26.52;4.28;;;;;;;21.23;78.95;93555.59;5157390;27;20230;-76
2021/06/20 03:58:12;;;;;;;21.73;3.78;;;;;;;21.14;78.48;93536.00;5157323;27;20222;-75
2021/06/20 04:00:39;;;;;;;24.40;3.75;;;;;;;21.07;79.29;93521.16;5157564;27;20200;-75
2021/06/20 04:03:06;;;;;;;17.20;3.80;;;;;;;21.03;77.62;93498.88;5157509;27;20207;-76
2021/06/20 04:05:33;;;;;;;27.52;3.63;;;;;;;21.03;77.76;93514.81;5157191;27;20554;-77
2021/06/20 04:08:00;;;;;;;25.13;3.50;;;;;;;21.01;78.19;93532.06;5136573;27;20197;-76
2021/06/20 04:10:27;;;;;;;21.10;3.67;;;;;;;21.04;77.66;93519.03;5136468;27;20203;-76
2021/06/20 04:12:54;;;;;;;17.35;3.33;;;;;;;21.03;76.97;93522.78;5136271;27;20200;-76
2021/06/20 04:15:22;;;;;;;20.55;3.03;;;;;;;21.01;76.70;93519.56;5136528;27;20224;-77
2021/06/20 04:17:48;;;;;;;22.67;3.15;;;;;;;21.05;76.33;93528.59;5136445;27;20208;-77
2021/06/20 04:20:15;;;;;;;16.67;2.97;;;;;;;21.01;76.61;93522.22;5136467;27;20555;-76
2021/06/20 04:22:43;;;;;;;14.93;2.75;;;;;;;21.03;76.05;93521.97;5136245;27;20212;-77
2021/06/20 04:25:13;;;;;;;15.40;3.30;;;;;;;21.06;76.39;93516.91;5136002;27;20830;-76
2021/06/20 04:27:40;;;;;;;9.90;2.20;;;;;;;21.09;76.09;93515.56;5136446;27;20189;-74
2021/06/20 04:30:07;;;;;;;10.88;2.97;;;;;;;21.10;76.25;93516.34;5139822;27;20204;-74
2021/06/20 04:32:35;;;;;;;16.58;2.92;;;;;;;21.02;76.61;93523.81;5156560;27;20192;-78
2021/06/20 04:35:03;;;;;;;17.40;3.13;;;;;;;21.01;74.50;93524.09;5155789;27;20427;-74
2021/06/20 04:37:29;;;;;;;16.40;2.65;;;;;;;21.01;75.79;93522.22;5156762;27;20203;-77
2021/06/20 04:39:55;;;;;;;23.30;3.58;;;;;;;20.99;78.30;93528.88;5156543;27;20195;-77
2021/06/20 04:42:31;;;;;;;18.60;3.65;;;;;;;21.00;78.66;93535.75;5156750;27;20211;-76
2021/06/20 04:44:58;;;;;;;11.18;2.20;;;;;;;21.10;76.53;93532.28;5156831;27;20267;-77
2021/06/20 04:47:26;;;;;;;9.90;2.58;;;;;;;21.19;75.85;93536.75;5156343;27;20681;-76
2021/06/20 04:49:55;;;;;;;12.50;3.00;;;;;;;21.25;78.63;93527.72;5156465;27;20292;-76
2021/06/20 04:52:22;;;;;;;16.67;2.60;;;;;;;21.24;79.52;93530.63;5156207;27;20192;-77
2021/06/20 04:54:52;;;;;;;8.60;2.47;;;;;;;21.33;79.45;93528.97;5156242;27;20196;-76
2021/06/20 04:57:20;;;;;;;10.95;2.85;;;;;;;21.41;79.55;93524.97;5156397;27;20304;-76
2021/06/20 04:59:47;;;;;;;14.52;3.10;;;;;;;21.49;79.01;93521.00;5156333;27;20196;-76
2021/06/20 05:02:14;;;;;;;15.98;2.92;;;;;;;21.63;79.73;93529.91;5156239;27;20200;-75
2021/06/20 05:04:41;;;;;;;16.33;3.13;;;;;;;21.57;80.98;93525.72;5156065;27;20658;-75
2021/06/20 05:07:10;;;;;;;11.30;2.35;;;;;;;21.51;69.61;93522.28;5155930;27;20199;-76
2021/06/20 05:09:36;;;;;;;11.75;2.20;;;;;;;21.56;78.22;93521.47;5155928;27;20200;-76
2021/06/20 05:12:03;;;;;;;9.52;2.70;;;;;;;21.74;79.07;93533.31;5156061;27;20202;-75
2021/06/20 05:14:30;;;;;;;11.73;2.30;;;;;;;21.83;77.96;93530.84;5156014;27;20207;-75
2021/06/20 05:16:57;;;;;;;12.23;2.25;;;;;;;21.99;76.37;93529.69;5155864;27;20228;-75
2021/06/20 05:19:24;;;;;;;11.48;1.63;;;;;;;21.95;66.00;93528.66;5155861;27;20658;-76
2021/06/20 05:21:50;;;;;;;15.25;1.88;;;;;;;21.87;71.84;93531.91;5155832;27;20219;-76
2021/06/20 05:24:18;;;;;;;14.75;2.83;;;;;;;21.94;74.91;93527.84;5155974;27;20203;-76
2021/06/20 05:26:44;;;;;;;5.25;1.63;;;;;;;22.10;73.54;93525.88;5155503;27;20310;-75
2021/06/20 05:29:11;;;;;;;8.68;2.50;;;;;;;22.17;69.31;93518.38;5155662;27;20203;-75
2021/06/20 05:31:37;;;;;;;9.30;1.70;;;;;;;22.53;70.32;93523.41;5155570;27;20658;-76
2021/06/20 05:34:04;;;;;;;11.13;1.67;;;;;;;22.72;67.94;93520.03;5155440;27;20204;-77
2021/06/20 05:36:30;;;;;;;12.27;1.90;;;;;;;22.73;65.87;93526.91;5155655;27;20250;-77
2021/06/20 05:38:57;;;;;;;7.28;1.70;;;;;;;22.79;66.56;93517.81;5155600;27;20192;-77
2021/06/20 05:41:25;;;;;;;9.43;1.75;;;;;;;22.90;69.78;93516.63;5155498;27;20207;-75
2021/06/20 05:43:53;;;;;;;6.90;1.27;;;;;;;22.88;62.71;93507.31;5155351;27;20203;-76
2021/06/20 05:46:21;;;;;;;9.60;1.40;;;;;;;22.80;61.95;93516.75;5155333;27;20397;-76
2021/06/20 05:48:48;;;;;;;3.53;1.30;;;;;;;22.98;68.17;93512.56;5154982;27;20607;-76
2021/06/20 05:51:14;;;;;;;7.75;1.38;;;;;;;22.77;64.38;93516.53;5155179;27;20196;-76
2021/06/20 05:53:41;;;;;;;7.00;1.50;;;;;;;23.02;63.65;93515.44;5155108;27;20196;-75
2021/06/20 05:56:07;;;;;;;4.82;1.30;;;;;;;23.24;64.81;93515.69;5155237;27;20589;-75
2021/06/20 05:58:35;;;;;;;5.82;1.40;;;;;;;23.31;61.43;93509.25;5154111;27;20440;-76
2021/06/20 06:01:02;;;;;;;8.77;1.27;;;;;;;23.32;60.80;93518.84;5154992;27;20562;-75
2021/06/20 06:03:28;;;;;;;9.88;1.48;;;;;;;23.85;61.10;93512.50;5154657;27;20203;-75
2021/06/20 06:05:55;;;;;;;4.30;1.10;;;;;;;24.19;62.40;93514.91;5155087;27;20204;-77
2021/06/20 06:08:21;;;;;;;3.90;1.27;;;;;;;24.09;56.66;93521.19;5155033;27;20200;-75
2021/06/20 06:10:48;;;;;;;4.57;1.17;;;;;;;23.95;58.46;93523.81;5154906;27;20206;-75
2021/06/20 06:13:14;;;;;;;6.10;1.25;;;;;;;24.12;56.93;93511.84;5154888;27;20196;-74
2021/06/20 06:15:42;;;;;;;7.32;1.20;;;;;;;24.29;56.11;93504.06;5154767;27;20200;-75
2021/06/20 06:18:09;;;;;;;6.78;1.35;;;;;;;24.12;54.99;93507.28;5154829;27;20207;-74
2021/06/20 06:20:35;;;;;;;4.63;1.05;;;;;;;24.15;57.37;93513.94;5154964;27;20212;-74
2021/06/20 06:23:02;;;;;;;6.47;1.10;;;;;;;23.82;57.34;93513.91;5154783;27;20203;-75
2021/06/20 06:25:28;;;;;;;8.52;1.58;;;;;;;23.62;58.80;93507.75;5154571;27;20236;-73
2021/06/20 06:27:55;;;;;;;7.40;1.40;;;;;;;23.57;59.88;93510.47;5154228;27;20196;-77
2021/06/20 06:30:22;;;;;;;4.82;1.10;;;;;;;23.46;57.24;93509.84;5154531;27;20204;-77
2021/06/20 06:32:51;;;;;;;3.80;1.25;;;;;;;23.54;62.40;93507.59;5154840;27;20192;-76
2021/06/20 06:35:18;;;;;;;6.15;1.27;;;;;;;23.35;59.39;93521.72;5154759;27;20200;-76
2021/06/20 06:37:45;;;;;;;5.88;1.40;;;;;;;23.33;59.37;93520.41;5154593;27;20224;-75
2021/06/20 06:40:12;;;;;;;2.10;0.90;;;;;;;23.53;63.12;93522.81;5154582;27;20196;-75
2021/06/20 06:42:39;;;;;;;5.00;1.30;;;;;;;23.11;65.24;93528.94;5154586;27;20196;-74
2021/06/20 06:45:07;;;;;;;7.28;1.20;;;;;;;23.17;64.31;93541.13;5154406;27;20206;-75
2021/06/20 06:47:35;;;;;;;5.60;1.38;;;;;;;23.18;63.33;93535.50;5154455;27;20282;-75
2021/06/20 06:50:03;;;;;;;6.13;1.20;;;;;;;22.91;64.27;93549.34;5154581;27;20191;-75
2021/06/20 06:52:30;;;;;;;4.10;1.08;;;;;;;22.72;63.02;93550.09;5154508;27;20200;-76
2021/06/20 06:54:56;;;;;;;6.72;1.00;;;;;;;22.82;62.35;93551.84;5154457;27;20203;-75
2021/06/20 06:57:24;;;;;;;6.55;1.33;;;;;;;22.72;63.90;93558.06;5154217;27;20227;-75
2021/06/20 06:59:52;;;;;;;8.07;1.10;;;;;;;22.72;63.83;93562.59;5154284;27;20203;-75
2021/06/20 07:02:18;;;;;;;7.15;1.17;;;;;;;22.49;64.30;93558.81;5154513;27;20196;-75
2021/06/20 07:04:45;;;;;;;6.47;1.38;;;;;;;22.33;65.06;93566.13;5154232;27;20200;-75
2021/06/20 07:07:12;;;;;;;4.47;1.02;;;;;;;22.13;71.13;93567.88;5154225;27;20563;-75
2021/06/20 07:09:39;;;;;;;4.40;0.90;;;;;;;22.04;75.60;93571.41;5154248;27;20200;-75
2021/06/20 07:12:06;;;;;;;5.35;1.50;;;;;;;21.86;78.95;93573.63;5154180;27;20223;-75
2021/06/20 07:14:35;;;;;;;5.50;1.13;;;;;;;21.96;79.86;93584.19;5154860;27;20198;-75
2021/06/20 07:17:01;;;;;;;9.20;1.27;;;;;;;22.05;80.83;93573.78;5158265;27;20223;-75
2021/06/20 07:19:28;;;;;;;6.50;1.35;;;;;;;22.08;80.57;93570.56;5158304;27;20203;-74
2021/06/20 07:21:55;;;;;;;3.97;1.25;;;;;;;22.38;80.30;93568.75;5158180;27;20199;-74
2021/06/20 07:24:22;;;;;;;10.45;1.73;;;;;;;22.32;81.11;93562.69;5158088;27;20203;-74
2021/06/20 07:26:49;;;;;;;4.43;1.63;;;;;;;22.25;78.80;93564.84;5157934;27;20240;-75
2021/06/20 07:29:15;;;;;;;6.03;1.35;;;;;;;22.19;76.31;93565.97;5158190;27;20199;-75
2021/06/20 07:31:42;;;;;;;4.65;1.00;;;;;;;22.26;75.29;93576.28;5157909;27;20200;-76
2021/06/20 07:34:08;;;;;;;7.28;1.20;;;;;;;22.34;74.94;93562.41;5157940;27;20196;-76
2021/06/20 07:36:35;;;;;;;10.68;1.52;;;;;;;22.22;73.55;93559.31;5157708;27;20224;-76
2021/06/20 07:39:03;;;;;;;7.63;1.52;;;;;;;22.15;73.44;93564.94;5157880;27;20223;-75
2021/06/20 07:41:31;;;;;;;8.05;1.63;;;;;;;22.22;74.52;93549.44;5157709;27;20238;-75
2021/06/20 07:43:57;;;;;;;9.10;1.08;;;;;;;22.17;75.48;93544.97;5157874;27;20200;-75
2021/06/20 07:46:24;;;;;;;4.43;1.25;;;;;;;22.25;78.13;93548.09;5157663;27;20200;-74
2021/06/20 07:48:50;;;;;;;9.43;1.38;;;;;;;22.46;78.39;93549.53;5157741;27;20562;-74
2021/06/20 07:51:17;;;;;;;6.63;1.55;;;;;;;22.75;77.29;93559.38;5157607;27;20200;-75
2021/06/20 07:53:43;;;;;;;6.50;1.80;;;;;;;22.97;76.38;93558.88;5157462;27;20196;-76
2021/06/20 07:56:10;;;;;;;8.88;1.30;;;;;;;22.76;77.14;93565.50;5157604;27;20208;-75
2021/06/20 07:58:38;;;;;;;6.93;1.02;;;;;;;22.62;77.74;93546.75;5157538;27;20204;-75
2021/06/20 08:01:05;;;;;;;7.43;1.30;;;;;;;22.64;79.35;93552.56;5157487;27;20204;-75
2021/06/20 08:03:32;;;;;;;8.95;1.45;;;;;;;23.05;78.63;93541.50;5156894;27;20439;-74
2021/06/20 08:05:58;;;;;;;2.80;1.35;;;;;;;23.38;76.83;93537.13;5157349;27;20274;-75
2021/06/20 08:08:25;;;;;;;7.18;1.17;;;;;;;23.68;76.14;93529.81;5157173;27;20202;-74
2021/06/20 08:10:51;;;;;;;7.18;1.65;;;;;;;23.62;74.32;93531.72;5157372;27;20204;-75
2021/06/20 08:13:18;;;;;;;7.47;1.40;;;;;;;23.71;74.12;93531.09;5157263;27;20208;-76
2021/06/20 08:15:46;;;;;;;9.50;1.60;;;;;;;23.81;73.00;93533.59;5157207;27;20200;-75
2021/06/20 08:18:12;;;;;;;5.28;1.20;;;;;;;24.44;70.45;93526.25;5156950;27;20220;-75
2021/06/20 08:20:39;;;;;;;4.65;1.60;;;;;;;24.32;70.01;93516.81;5157066;27;20284;-74
2021/06/20 08:23:06;;;;;;;4.82;1.33;;;;;;;24.74;69.83;93507.03;5156811;27;20192;-75
2021/06/20 08:25:32;;;;;;;8.13;1.08;;;;;;;24.79;65.68;93516.06;5156401;27;20232;-75
2021/06/20 08:27:59;;;;;;;7.38;1.40;;;;;;;25.01;62.68;93516.13;5157088;27;20204;-75
2021/06/20 08:30:26;;;;;;;6.43;1.30;;;;;;;25.10;62.56;93514.38;5156868;27;20207;-75
2021/06/20 08:32:53;;;;;;;8.95;1.83;;;;;;;25.54;64.27;93516.72;5156903;27;20200;-75
2021/06/20 08:35:20;;;;;;;8.50;1.73;;;;;;;25.06;62.45;93513.41;5156043;27;20198;-75
2021/06/20 08:37:47;;;;;;;5.38;1.30;;;;;;;25.03;61.69;93513.19;5156809;27;20231;-75
2021/06/20 08:40:15;;;;;;;7.20;1.17;;;;;;;24.95;64.44;93504.00;5156877;27;20253;-75
2021/06/20 08:42:42;;;;;;;8.32;1.58;;;;;;;24.83;61.48;93507.16;5156706;27;20242;-75
2021/06/20 08:45:09;;;;;;;4.25;1.15;;;;;;;25.28;59.37;93506.56;5156434;27;20196;-75
2021/06/20 08:47:36;;;;;;;6.63;1.60;;;;;;;25.75;57.85;93501.03;5156450;27;20650;-74
2021/06/20 08:50:06;;;;;;;8.10;1.10;;;;;;;26.17;56.54;93499.00;5156323;27;20546;-74
2021/06/20 08:52:32;;;;;;;5.13;1.23;;;;;;;26.31;57.73;93494.38;5156564;27;20240;-74
2021/06/20 08:55:02;;;;;;;5.28;1.40;;;;;;;26.62;55.77;93492.78;5156299;27;20681;-74
2021/06/20 08:57:30;;;;;;;8.77;1.30;;;;;;;26.44;56.50;93495.38;5156244;27;20215;-74
2021/06/20 08:59:57;;;;;;;10.32;1.70;;;;;;;26.24;57.26;93498.56;5156315;27;20200;-74
2021/06/20 09:02:25;;;;;;;14.55;1.98;;;;;;;26.00;58.16;93491.66;5156310;27;20200;-74
2021/06/20 09:04:56;;;;;;;11.85;1.40;;;;;;;26.50;58.32;93504.09;5156466;27;20196;-75
2021/06/20 09:07:31;;;;;;;6.93;1.40;;;;;;;26.86;55.34;93500.47;5156291;27;20204;-74
2021/06/20 09:10:13;;;;;;;6.43;1.40;;;;;;;26.94;56.85;93497.81;5156260;27;20195;-74
2021/06/20 09:12:48;;;;;;;6.22;1.30;;;;;;;27.41;57.16;93497.38;5156128;27;20200;-74
2021/06/20 09:15:17;;;;;;;9.93;1.95;;;;;;;27.61;55.70;93495.97;5156129;27;20392;-74
2021/06/20 09:17:52;;;;;;;11.23;1.63;;;;;;;27.40;52.37;93493.09;5155969;27;20234;-74
2021/06/20 09:20:18;;;;;;;10.02;1.83;;;;;;;27.65;55.88;93478.13;5155906;27;20192;-74
2021/06/20 09:22:57;;;;;;;12.35;2.08;;;;;;;27.77;56.90;93477.50;5155860;27;20196;-74
2021/06/20 09:25:29;;;;;;;8.93;2.13;;;;;;;27.50;55.81;93478.59;5155561;27;20562;-76
2021/06/20 09:27:57;;;;;;;16.38;2.50;;;;;;;26.80;55.16;93486.44;5155076;27;20432;-75
2021/06/20 09:30:25;;;;;;;9.18;1.80;;;;;;;27.20;56.56;93483.72;5155753;27;20196;-75
2021/06/20 09:32:53;;;;;;;11.30;2.53;;;;;;;27.20;55.64;93473.00;5155765;27;20200;-75
2021/06/20 09:35:20;;;;;;;17.20;2.45;;;;;;;27.06;59.65;93477.69;5155619;27;20195;-75
2021/06/20 09:37:51;;;;;;;13.23;2.30;;;;;;;26.71;56.81;93477.56;5154492;27;20232;-75
2021/06/20 09:40:20;;;;;;;17.30;2.67;;;;;;;26.36;58.81;93477.38;5155738;27;20203;-76
2021/06/20 09:42:46;;;;;;;13.38;2.22;;;;;;;26.25;58.38;93481.41;5155343;27;20243;-76
2021/06/20 09:45:14;;;;;;;13.15;2.38;;;;;;;26.51;61.16;93482.34;5155356;27;20196;-76
2021/06/20 09:47:43;;;;;;;22.08;3.50;;;;;;;26.42;58.89;93476.16;5155263;27;20196;-75
2021/06/20 09:50:10;;;;;;;11.75;2.40;;;;;;;27.44;56.96;93471.81;5155336;27;20290;-76
2021/06/20 09:52:38;;;;;;;14.40;3.25;;;;;;;27.71;57.24;93462.66;5155212;27;20200;-75
2021/06/20 09:55:10;;;;;;;15.63;2.72;;;;;;;27.93;55.10;93467.13;5155379;27;20203;-75
2021/06/20 09:57:42;;;;;;;17.00;2.60;;;;;;;28.18;53.50;93462.81;5154986;27;20678;-76
2021/06/20 10:00:10;;;;;;;17.02;2.75;;;;;;;27.80;53.57;93457.31;5155124;27;20199;-75
2021/06/20 10:02:39;;;;;;;16.10;2.70;;;;;;;27.88;52.94;93448.47;5155067;27;20206;-76
2021/06/20 10:05:07;;;;;;;15.82;2.70;;;;;;;28.26;52.77;93447.00;5154919;27;20204;-75
2021/06/20 10:07:33;;;;;;;14.30;2.92;;;;;;;28.23;51.73;93441.16;5155022;27;20223;-75
2021/06/20 10:10:02;;;;;;;18.67;3.05;;;;;;;28.49;53.00;93442.19;5154335;27;20790;-76
2021/06/20 10:12:29;;;;;;;21.73;3.67;;;;;;;28.04;51.90;93429.97;5155001;27;20227;-74
2021/06/20 10:14:59;;;;;;;13.68;3.17;;;;;;;28.05;52.17;93426.97;5154909;27;20598;-75
2021/06/20 10:17:31;;;;;;;22.85;3.05;;;;;;;28.27;51.91;93422.50;5154666;27;20223;-75
2021/06/20 10:20:00;;;;;;;17.85;3.10;;;;;;;28.16;52.20;93427.44;5155024;27;20215;-76
2021/06/20 10:22:35;;;;;;;20.63;3.40;;;;;;;29.04;48.01;93422.53;5154619;27;20665;-76
2021/06/20 10:25:01;;;;;;;28.25;4.18;;;;;;;28.79;50.24;93411.59;5154867;27;20204;-75
2021/06/20 10:27:30;;;;;;;23.88;3.38;;;;;;;28.94;49.72;93420.22;5154597;27;20314;-75
2021/06/20 10:30:04;;;;;;;21.38;3.60;;;;;;;28.90;49.58;93416.59;5154524;27;20203;-76
2021/06/20 10:32:37;;;;;;;27.75;4.18;;;;;;;29.02;48.64;93413.22;5154922;27;20203;-75
2021/06/20 10:35:07;;;;;;;18.08;3.30;;;;;;;28.64;47.94;93409.44;5154723;27;20191;-76
2021/06/20 10:37:38;;;;;;;23.00;3.42;;;;;;;28.04;50.76;93414.66;5154007;27;20227;-75
2021/06/20 10:40:06;;;;;;;21.15;3.55;;;;;;;27.99;50.14;93411.38;5154872;27;20188;-75
2021/06/20 10:42:37;;;;;;;22.05;3.90;;;;;;;27.69;53.85;93403.97;5154442;27;20642;-75
2021/06/20 10:45:06;;;;;;;22.92;3.70;;;;;;;28.91;50.46;93404.72;5154714;27;20204;-75
2021/06/20 10:47:35;;;;;;;26.90;4.25;;;;;;;28.07;50.12;93399.81;5154455;27;20203;-75
2021/06/20 10:50:04;;;;;;;26.17;4.10;;;;;;;27.49;52.78;93404.59;5157688;27;20208;-75
2021/06/20 10:52:31;;;;;;;19.75;3.55;;;;;;;27.86;48.55;93405.03;5157722;27;20777;-75
2021/06/20 10:55:12;;;;;;;24.85;4.05;;;;;;;28.09;48.90;93400.28;5158669;27;20196;-74
2021/06/20 10:57:46;;;;;;;20.58;4.07;;;;;;;28.05;53.61;93391.31;5158758;27;20646;-75
2021/06/20 11:00:26;;;;;;;35.42;4.43;;;;;;;28.58;55.31;93391.94;5158717;27;20195;-75
2021/06/20 11:02:54;;;;;;;23.33;3.60;;;;;;;28.94;49.51;93386.06;5158683;27;20221;-74
2021/06/20 11:05:22;;;;;;;31.80;4.53;;;;;;;28.81;46.26;93389.75;5158423;27;20222;-74
2021/06/20 11:07:49;;;;;;;29.65;4.45;;;;;;;28.90;48.86;93395.88;5158490;27;20204;-75
2021/06/20 11:10:22;;;;;;;23.80;3.72;;;;;;;29.19;45.19;93401.59;5158286;27;20199;-75
2021/06/20 11:12:54;;;;;;;31.58;4.38;;;;;;;28.68;47.25;93385.41;5158500;27;20196;-75
2021/06/20 11:15:28;;;;;;;26.40;4.55;;;;;;;28.25;48.71;93387.16;5158503;27;20206;-75
2021/06/20 11:18:05;;;;;;;27.30;3.67;;;;;;;28.23;50.98;93384.78;5158125;27;20223;-74
2021/06/20 11:20:33;;;;;;;22.33;3.50;;;;;;;28.86;46.08;93386.09;5158477;27;20199;-74
2021/06/20 11:23:00;;;;;;;22.45;3.65;;;;;;;28.80;49.87;93374.75;5158227;27;20554;-74
2021/06/20 11:25:27;;;;;;;27.75;4.47;;;;;;;29.29;46.75;93368.94;5158024;27;20196;-76
2021/06/20 11:27:53;;;;;;;27.77;4.05;;;;;;;28.92;50.35;93366.00;5158111;27;20204;-75